Aeroporto :
LOGIN :

Iscrizione | Disclaimer

   EN    FR    IT 

 










Sommario :    VFR   VFR Marginale   IFR   IFR Intensivo   IFR Molto Intensivo
Visibilità : 
Base nubi : 
>= 8 km
>= 3000ft
5 / 8 km
1000 / 3000 ft
1500m / 5 km
500 / 1000 ft
800 / 1500m
200 / 500 ft
< 800m
< 200 ft
Simboli :   Temporali  Nebbia  Neve Forte  Precipitazioni Forti  Vento > 20 kt
SIGMETs :   Varie  Temporali  Ghiacco  Turbolenza  Onda orograficha  Ceneri Vulcaniche







- Altitudine del aeroporto : 183 ft


LIBA - Amendola Foggia

ULTIMO METAR :
  • 210455Z 28008KT 0800 FG NSC 02/01 Q1025 RMK SKC VIS MIN 0800 WIND THR11 28007KT WIND THR29 /////KT AMB

METARs OBSOLETI :
  • 210355Z 28008KT 0800 FG NSC 03/02 Q1024 RMK SKC VIS MIN 0800 WIND THR11 29008KT WIND THR29 /////KT AMB

TAF TAF LIBA
Valido dal 21 a 06 ore il 21 a 15 ore UTC


210500Z 2106/2115 29015KT 0800 FG NSC
BECMG 2107/2109 3000 BR SCT010
PROB40
TEMPO 2109/2111 BNK010
BECMG 2109/2111 8000 SCT025
BECMG 2111/2112 9999 SCT030
Nessun NOTAM noto per questo aeroporto.



MetMap, La meteo Aeronautica in un colpo d'occhio ! - Copyright ORBIFLY Dicembre 2007 - Disclaimer

ORBIFLY MET'MAP TEAM :

Programmazione e sviluppo : Alexandra Zaïnal
Concezione e sviluppo : Baudouin d'Aumeries
Co-Programmazione e sviluppo : Marc-Olivier Méhu
Supporto tecnico e logistico : Manuel Goepfert
Aiuto per la traduzione : Arnaldo La Scala

Contatto : metmap@orbifly.com




FONTI E CREDITI :

   NOAA